Time;durP1;ratioP1;P1;durP2;ratioP2;P2;SDS_P1;SDS_P2;PMS_P1;PMS_P2;Temp;Humidity;BMP_temperature;BMP_pressure;BME280_temperature;BME280_humidity;BME280_pressure;Samples;Min_cycle;Max_cycle;Signal;HPM_P1;HPM_P2
2023/05/19 00:00:55;;;;;;;5.87;2.40;;;;;;;10.40;70.27;101852.47;4984228;28;20227;-80
2023/05/19 00:03:22;;;;;;;3.47;2.40;;;;;;;10.35;71.14;101859.44;4985039;28;20208;-81
2023/05/19 00:05:49;;;;;;;4.90;2.50;;;;;;;10.36;71.17;101853.34;4984311;28;20224;-82
2023/05/19 00:08:18;;;;;;;3.63;2.80;;;;;;;10.38;71.00;101861.19;4984247;28;20670;-81
2023/05/19 00:10:45;;;;;;;4.77;2.57;;;;;;;10.36;70.79;101871.59;4984541;28;20259;-79
2023/05/19 00:13:12;;;;;;;4.27;2.50;;;;;;;10.31;71.61;101866.38;4984737;28;20212;-79
2023/05/19 00:15:38;;;;;;;3.10;2.80;;;;;;;10.37;70.58;101867.28;4983954;28;20231;-80
2023/05/19 00:18:07;;;;;;;4.70;2.70;;;;;;;10.37;70.16;101881.19;4984787;28;20208;-81
2023/05/19 00:20:34;;;;;;;13.13;3.00;;;;;;;10.35;70.40;101893.38;4983094;28;20235;-81
2023/05/19 00:23:00;;;;;;;4.23;2.50;;;;;;;10.31;70.99;101886.38;4984329;28;20208;-81
2023/05/19 00:25:28;;;;;;;3.50;2.53;;;;;;;10.27;70.92;101880.25;4983474;28;20220;-81
2023/05/19 00:27:54;;;;;;;6.50;3.37;;;;;;;10.26;71.68;101880.22;4985227;28;20220;-82
2023/05/19 00:30:21;;;;;;;3.17;2.50;;;;;;;10.30;71.54;101859.38;4984085;28;20210;-81
2023/05/19 00:32:48;;;;;;;3.90;2.57;;;;;;;10.28;71.78;101858.47;4983870;28;20232;-81
2023/05/19 00:35:14;;;;;;;3.53;2.80;;;;;;;10.22;72.63;101839.31;4984471;28;20219;-80
2023/05/19 00:37:40;;;;;;;4.57;2.83;;;;;;;10.12;72.67;101826.22;4983535;28;20445;-81
2023/05/19 00:40:08;;;;;;;3.30;2.53;;;;;;;10.17;72.54;101815.81;4984634;28;20698;-81
2023/05/19 00:42:36;;;;;;;3.67;2.40;;;;;;;10.09;72.46;101818.38;4983407;28;20247;-81
2023/05/19 00:45:02;;;;;;;4.90;2.70;;;;;;;10.09;72.43;101810.56;4983913;28;20204;-81
2023/05/19 00:47:28;;;;;;;2.67;2.47;;;;;;;10.12;72.48;101810.56;4984644;28;20212;-81
2023/05/19 00:49:55;;;;;;;2.97;2.60;;;;;;;10.16;72.18;101813.19;4983937;28;20699;-81
2023/05/19 00:52:21;;;;;;;3.50;2.60;;;;;;;10.18;71.74;101814.06;4983303;28;20235;-79
2023/05/19 00:54:48;;;;;;;3.03;2.33;;;;;;;10.06;72.10;101822.72;4983884;28;20240;-81
2023/05/19 00:57:15;;;;;;;3.03;2.50;;;;;;;10.09;72.17;101825.34;4984091;28;20204;-80
2023/05/19 00:59:42;;;;;;;3.80;2.70;;;;;;;10.07;72.22;101820.13;4984335;28;20686;-80
2023/05/19 01:02:09;;;;;;;3.90;2.53;;;;;;;10.11;72.40;101823.63;4982661;28;20220;-81
2023/05/19 01:04:38;;;;;;;2.80;2.57;;;;;;;10.06;72.52;101810.53;4983832;28;20212;-80
2023/05/19 01:07:05;;;;;;;4.83;2.67;;;;;;;10.10;72.23;101807.06;4983882;28;20295;-80
2023/05/19 01:09:31;;;;;;;3.17;2.57;;;;;;;10.06;72.44;101820.97;4984287;28;20212;-81
2023/05/19 01:11:58;;;;;;;4.37;2.50;;;;;;;10.06;72.45;101822.72;4983501;28;20277;-80
2023/05/19 01:14:25;;;;;;;4.10;2.63;;;;;;;10.01;72.59;101812.25;4983588;28;20204;-81
2023/05/19 01:17:04;;;;;;;2.90;2.60;;;;;;;10.05;72.50;101814.03;4982027;28;20238;-81
2023/05/19 01:19:52;;;;;;;3.23;2.83;;;;;;;10.05;72.33;101815.72;4983342;28;20212;-81
2023/05/19 01:22:29;;;;;;;4.73;2.50;;;;;;;10.07;72.22;101814.03;4983204;28;20255;-81
2023/05/19 01:25:23;;;;;;;4.30;2.60;;;;;;;10.05;72.56;101816.63;4982477;28;20565;-79
2023/05/19 01:28:21;;;;;;;3.77;2.50;;;;;;;9.97;72.45;101814.81;4983459;28;20320;-80
2023/05/19 01:30:53;;;;;;;4.37;3.27;;;;;;;9.89;72.56;101810.44;4983921;28;20228;-79
2023/05/19 01:33:22;;;;;;;3.23;2.43;;;;;;;9.86;72.79;101814.78;4984280;28;20210;-79
2023/05/19 01:35:49;;;;;;;3.67;3.07;;;;;;;9.86;72.78;101806.94;4982823;28;20207;-79
2023/05/19 01:38:17;;;;;;;3.27;2.87;;;;;;;9.82;72.80;101806.06;4983726;28;20235;-82
2023/05/19 01:40:46;;;;;;;5.00;3.60;;;;;;;9.79;72.85;101807.75;4983324;28;20232;-80
2023/05/19 01:43:16;;;;;;;3.43;3.10;;;;;;;9.85;72.62;101805.19;4982885;28;20228;-81
2023/05/19 01:45:44;;;;;;;4.50;3.50;;;;;;;9.82;72.37;101813.00;4982273;28;20231;-81
2023/05/19 01:48:13;;;;;;;5.80;3.53;;;;;;;9.83;72.48;101813.03;4983441;28;20204;-81
2023/05/19 01:50:40;;;;;;;2.57;2.37;;;;;;;9.75;72.75;101809.47;4983170;28;20211;-80
2023/05/19 01:53:06;;;;;;;3.10;2.80;;;;;;;9.73;72.76;101813.81;4982787;28;20228;-82
2023/05/19 01:55:33;;;;;;;3.73;2.80;;;;;;;9.68;73.14;101805.09;4983181;28;20223;-82
2023/05/19 01:58:06;;;;;;;3.90;3.10;;;;;;;9.57;73.36;101811.97;4982728;28;20231;-81
2023/05/19 02:00:45;;;;;;;3.63;2.70;;;;;;;9.52;74.07;101791.09;4983201;28;20204;-80
2023/05/19 02:03:25;;;;;;;4.73;3.27;;;;;;;9.56;73.71;101782.41;4983603;28;20263;-81
2023/05/19 02:05:59;;;;;;;5.00;3.00;;;;;;;9.49;73.93;101783.22;4982168;28;20199;-82
2023/05/19 02:08:33;;;;;;;4.53;3.17;;;;;;;9.49;73.92;101778.91;4983016;28;20212;-81
2023/05/19 02:11:05;;;;;;;3.47;3.10;;;;;;;9.48;73.78;101784.09;4982709;28;20740;-81
2023/05/19 02:13:36;;;;;;;4.67;2.60;;;;;;;9.48;73.87;101784.97;4982710;28;20201;-82
2023/05/19 02:16:05;;;;;;;4.27;3.00;;;;;;;9.49;73.91;101778.91;4982388;28;20213;-82
2023/05/19 02:18:34;;;;;;;3.10;2.63;;;;;;;9.44;74.29;101775.38;4982647;28;20207;-81
2023/05/19 02:21:00;;;;;;;3.63;3.07;;;;;;;9.45;74.43;101761.47;4983448;28;20235;-81
2023/05/19 02:23:27;;;;;;;3.83;2.77;;;;;;;9.47;74.34;101761.50;4983295;28;20214;-81
2023/05/19 02:25:53;;;;;;;4.03;3.50;;;;;;;9.43;74.60;101767.56;4982209;28;20208;-80
2023/05/19 02:28:19;;;;;;;4.40;3.37;;;;;;;9.35;74.73;101757.06;4983204;28;20697;-81
2023/05/19 02:30:46;;;;;;;4.07;3.10;;;;;;;9.36;74.88;101751.00;4982838;28;20223;-81
2023/05/19 02:33:12;;;;;;;4.10;3.27;;;;;;;9.38;74.79;101751.03;4982985;28;20224;-82
2023/05/19 02:35:40;;;;;;;5.73;3.20;;;;;;;9.33;75.13;101749.22;4982409;28;20263;-82
2023/05/19 02:38:06;;;;;;;4.70;3.13;;;;;;;9.28;75.12;101743.13;4982664;28;20209;-81
2023/05/19 02:40:32;;;;;;;4.10;3.37;;;;;;;9.25;75.50;101737.03;4982787;28;20422;-80
2023/05/19 02:42:58;;;;;;;4.53;3.10;;;;;;;9.26;75.21;101730.97;4982770;28;20212;-81
2023/05/19 02:45:27;;;;;;;4.60;3.87;;;;;;;9.30;75.48;101728.38;4982386;28;20200;-81
2023/05/19 02:47:53;;;;;;;3.30;3.00;;;;;;;9.28;75.22;101726.63;4982500;28;20238;-78
2023/05/19 02:50:21;;;;;;;4.47;3.27;;;;;;;9.31;74.99;101729.25;4982510;28;20706;-80
2023/05/19 02:52:48;;;;;;;6.07;4.00;;;;;;;9.26;75.61;101725.75;4982176;28;20240;-82
2023/05/19 02:55:16;;;;;;;5.43;3.60;;;;;;;9.20;75.63;101720.50;4982570;28;20286;-81
2023/05/19 02:57:42;;;;;;;4.90;3.70;;;;;;;9.10;75.91;101714.34;4982070;28;20211;-81
2023/05/19 03:00:09;;;;;;;4.97;3.10;;;;;;;9.05;76.43;101701.25;4982657;28;20259;-81
2023/05/19 03:02:36;;;;;;;3.67;3.33;;;;;;;9.01;76.98;101696.03;4982139;28;20222;-82
2023/05/19 03:05:02;;;;;;;3.90;3.20;;;;;;;9.02;76.26;101685.63;4982583;28;20595;-81
2023/05/19 03:07:29;;;;;;;4.27;3.53;;;;;;;9.02;76.65;101682.13;4982828;28;20212;-80
2023/05/19 03:09:56;;;;;;;3.93;3.47;;;;;;;9.03;76.89;101684.75;4983281;28;20212;-82
2023/05/19 03:12:23;;;;;;;4.47;3.60;;;;;;;9.07;76.46;101676.09;4982275;28;20290;-82
2023/05/19 03:14:49;;;;;;;4.10;3.77;;;;;;;9.02;76.70;101677.81;4981794;28;20208;-81
2023/05/19 03:17:16;;;;;;;4.63;3.40;;;;;;;9.07;76.70;101672.63;4984259;28;20667;-81
2023/05/19 03:19:42;;;;;;;5.43;3.53;;;;;;;9.03;77.36;101671.72;4986726;28;20224;-82
2023/05/19 03:22:08;;;;;;;4.77;3.47;;;;;;;8.95;76.81;101669.06;4985494;28;20226;-81
2023/05/19 03:24:35;;;;;;;5.40;4.10;;;;;;;8.90;77.79;101664.69;4986404;28;20211;-80
2023/05/19 03:27:04;;;;;;;3.97;3.13;;;;;;;8.98;77.63;101644.81;4986503;28;20242;-81
2023/05/19 03:29:30;;;;;;;5.13;3.67;;;;;;;8.97;77.73;101655.19;4986400;28;20255;-81
2023/05/19 03:31:56;;;;;;;4.20;3.80;;;;;;;8.92;77.79;101648.22;4986636;28;20262;-80
2023/05/19 03:34:23;;;;;;;5.47;3.80;;;;;;;8.87;78.01;101649.91;4987229;28;20211;-81
2023/05/19 03:36:49;;;;;;;4.00;3.67;;;;;;;8.88;78.19;101638.66;4985702;28;20212;-81
2023/05/19 03:39:15;;;;;;;4.13;3.50;;;;;;;8.89;78.26;101640.38;4986016;28;20211;-81
2023/05/19 03:41:42;;;;;;;4.80;3.60;;;;;;;8.94;78.29;101635.22;4986193;28;20718;-82
2023/05/19 03:44:10;;;;;;;6.60;3.80;;;;;;;8.95;78.31;101639.56;4986166;28;20209;-81
2023/05/19 03:46:36;;;;;;;3.90;3.60;;;;;;;8.92;78.00;101639.56;4985600;28;20212;-81
2023/05/19 03:49:02;;;;;;;4.37;3.43;;;;;;;8.97;78.30;101637.84;4985621;28;20679;-82
2023/05/19 03:51:28;;;;;;;5.73;4.10;;;;;;;8.99;77.99;101650.88;4985657;28;20232;-82
2023/05/19 03:53:55;;;;;;;5.07;4.17;;;;;;;8.99;78.08;101646.53;4985699;28;20216;-82
2023/05/19 03:56:23;;;;;;;4.97;3.60;;;;;;;9.04;78.24;101643.94;4985716;28;20207;-82
2023/05/19 03:58:50;;;;;;;4.03;3.60;;;;;;;9.04;78.37;101643.94;4986113;28;20321;-81
2023/05/19 04:01:17;;;;;;;4.30;3.90;;;;;;;8.95;78.67;101643.03;4985783;28;20293;-82
2023/05/19 04:03:44;;;;;;;4.67;4.10;;;;;;;8.87;79.65;101621.28;4985716;28;20200;-81
2023/05/19 04:06:11;;;;;;;4.87;3.90;;;;;;;8.92;79.63;101610.91;4985325;28;20674;-82
2023/05/19 04:08:38;;;;;;;4.87;3.60;;;;;;;9.01;79.18;101612.69;4986343;28;20625;-81
2023/05/19 04:11:05;;;;;;;4.67;3.97;;;;;;;9.02;79.69;101609.22;4985655;28;20228;-80
2023/05/19 04:13:33;;;;;;;6.37;3.97;;;;;;;9.09;79.53;101605.78;4983133;28;20274;-82
2023/05/19 04:15:59;;;;;;;3.90;3.50;;;;;;;9.10;80.09;101608.41;4984758;28;20216;-82
2023/05/19 04:18:27;;;;;;;5.23;4.13;;;;;;;9.07;79.89;101602.31;4985560;28;20219;-81
2023/05/19 04:20:53;;;;;;;9.00;4.87;;;;;;;9.04;80.16;101600.56;4984954;28;20280;-81
2023/05/19 04:23:20;;;;;;;4.80;3.80;;;;;;;9.10;80.55;101597.13;4985011;28;20206;-82
2023/05/19 04:25:47;;;;;;;6.67;4.60;;;;;;;9.09;80.13;101598.84;4985387;28;20208;-81
2023/05/19 04:28:13;;;;;;;4.70;4.23;;;;;;;9.05;80.59;101601.44;4984714;28;20208;-82
2023/05/19 04:30:41;;;;;;;6.70;3.93;;;;;;;9.18;79.92;101602.34;4985495;28;20212;-81
2023/05/19 04:33:07;;;;;;;4.63;4.07;;;;;;;9.20;79.53;101601.53;4985312;28;20389;-82
2023/05/19 04:35:36;;;;;;;3.93;3.50;;;;;;;9.14;80.55;101615.38;4984865;28;20207;-83
2023/05/19 04:38:03;;;;;;;4.40;3.60;;;;;;;9.26;79.77;101609.38;4985648;28;20349;-81
2023/05/19 04:40:30;;;;;;;4.50;4.10;;;;;;;9.29;79.84;101618.94;4984736;28;20218;-81
2023/05/19 04:42:57;;;;;;;7.17;4.50;;;;;;;9.27;80.10;101618.06;5005888;23;20240;-77
2023/05/19 04:45:25;;;;;;;7.57;4.33;;;;;;;9.34;79.79;101625.91;4996064;28;20274;-77
2023/05/19 04:47:51;;;;;;;5.90;4.20;;;;;;;9.40;79.49;101625.06;5001625;28;20224;-79
2023/05/19 04:50:18;;;;;;;6.67;4.37;;;;;;;9.42;79.43;101633.78;5004059;28;20214;-77
2023/05/19 04:52:45;;;;;;;4.87;4.00;;;;;;;9.43;79.35;101643.31;4998900;28;20294;-77
2023/05/19 04:55:12;;;;;;;4.73;4.10;;;;;;;9.35;80.43;101626.78;4998323;28;20204;-76
2023/05/19 04:57:38;;;;;;;5.67;4.70;;;;;;;9.39;80.38;101619.84;4999383;28;20199;-77
2023/05/19 05:00:07;;;;;;;5.87;4.30;;;;;;;9.44;80.12;101623.38;4999455;28;20207;-77
2023/05/19 05:02:34;;;;;;;6.53;4.23;;;;;;;9.51;79.88;101631.22;4998597;28;20223;-77
2023/05/19 05:05:01;;;;;;;4.60;3.73;;;;;;;9.58;79.69;101636.47;4997616;28;20790;-77
2023/05/19 05:07:27;;;;;;;5.80;4.17;;;;;;;9.64;80.17;101636.47;4998035;28;20729;-77
2023/05/19 05:09:55;;;;;;;5.77;4.67;;;;;;;9.65;79.76;101633.00;4998834;28;20207;-77
2023/05/19 05:12:22;;;;;;;4.97;4.47;;;;;;;9.72;79.27;101651.28;4998526;28;20255;-77
2023/05/19 05:14:48;;;;;;;5.87;4.33;;;;;;;9.76;79.11;101654.78;4998598;28;20214;-77
2023/05/19 05:17:15;;;;;;;6.27;4.50;;;;;;;9.79;79.05;101661.72;4998721;28;20211;-77
2023/05/19 05:19:42;;;;;;;6.47;5.20;;;;;;;9.82;78.26;101675.66;4998281;28;20207;-77
2023/05/19 05:22:09;;;;;;;5.07;4.57;;;;;;;9.87;77.88;101688.72;4998446;28;20207;-77
2023/05/19 05:24:36;;;;;;;5.37;4.87;;;;;;;9.97;76.76;101705.28;4998548;28;20243;-77
2023/05/19 05:27:05;;;;;;;4.93;4.53;;;;;;;10.01;77.09;101707.91;4998218;28;20207;-77
2023/05/19 05:29:31;;;;;;;8.23;4.70;;;;;;;10.03;76.51;101721.84;4998187;28;20634;-77
2023/05/19 05:31:57;;;;;;;5.00;4.33;;;;;;;10.05;75.88;101746.19;4997632;28;20211;-77
2023/05/19 05:34:24;;;;;;;5.90;4.83;;;;;;;10.08;76.07;101755.75;4997097;28;20210;-76
2023/05/19 05:36:50;;;;;;;5.07;4.57;;;;;;;10.11;76.31;101755.78;4997302;28;20207;-77
2023/05/19 05:39:17;;;;;;;8.00;4.40;;;;;;;10.11;76.05;101769.69;4997050;28;20243;-77
2023/05/19 05:41:43;;;;;;;6.47;4.77;;;;;;;10.15;76.68;101752.31;4997510;28;20208;-77
2023/05/19 05:44:11;;;;;;;5.70;4.40;;;;;;;10.21;76.65;101746.22;4996587;28;20247;-77
2023/05/19 05:46:37;;;;;;;5.63;4.07;;;;;;;10.26;76.66;101742.78;4996656;28;20217;-77
2023/05/19 05:49:04;;;;;;;7.50;5.03;;;;;;;10.30;76.64;101741.09;4997775;28;20234;-77
2023/05/19 05:51:31;;;;;;;7.73;4.50;;;;;;;10.30;76.66;101738.47;4997870;28;20207;-77
2023/05/19 05:54:01;;;;;;;5.03;4.57;;;;;;;10.34;76.31;101753.28;4999208;28;20231;-78
2023/05/19 05:56:28;;;;;;;6.80;4.60;;;;;;;10.38;77.38;101741.09;4998745;28;20297;-77
2023/05/19 05:58:54;;;;;;;5.20;4.27;;;;;;;10.38;77.36;101728.91;4998920;28;20215;-78
2023/05/19 06:01:22;;;;;;;6.77;4.53;;;;;;;10.41;76.22;101749.81;4998883;28;20207;-77
2023/05/19 06:03:49;;;;;;;7.27;5.07;;;;;;;10.45;76.48;101761.16;4999984;28;20234;-78
2023/05/19 06:06:15;;;;;;;6.43;4.70;;;;;;;10.50;76.77;101751.59;4998886;28;20211;-77
2023/05/19 06:08:41;;;;;;;4.87;4.33;;;;;;;10.59;77.02;101750.75;4999264;28;20208;-77
2023/05/19 06:11:08;;;;;;;5.80;4.10;;;;;;;10.62;75.82;101764.66;4998801;28;20717;-77
2023/05/19 06:13:35;;;;;;;4.93;4.40;;;;;;;10.67;76.29;101768.16;4999567;28;20239;-78
2023/05/19 06:16:01;;;;;;;5.20;4.70;;;;;;;10.70;76.34;101769.91;4999037;28;20211;-78
2023/05/19 06:18:29;;;;;;;4.70;4.30;;;;;;;10.73;76.53;101768.16;5001112;28;20206;-78
2023/05/19 06:20:56;;;;;;;11.43;4.97;;;;;;;10.79;76.49;101766.44;5001175;28;20203;-78
2023/05/19 06:23:22;;;;;;;5.97;4.37;;;;;;;10.81;76.79;101754.25;5001340;28;20355;-78
2023/05/19 06:25:49;;;;;;;7.10;4.77;;;;;;;10.86;75.95;101757.72;5000062;28;20215;-78
2023/05/19 06:28:15;;;;;;;5.93;4.57;;;;;;;10.90;76.06;101772.53;4999626;28;20223;-78
2023/05/19 06:30:42;;;;;;;6.43;4.20;;;;;;;10.93;76.24;101765.59;4999754;28;20583;-78
2023/05/19 06:33:08;;;;;;;4.93;4.33;;;;;;;10.96;76.57;101772.56;4999224;28;20231;-77
2023/05/19 06:35:36;;;;;;;4.23;3.83;;;;;;;11.03;76.65;101753.41;4998425;28;20203;-78
2023/05/19 06:38:02;;;;;;;4.50;4.10;;;;;;;11.10;76.49;101763.00;4999254;28;20207;-78
2023/05/19 06:40:28;;;;;;;5.13;4.10;;;;;;;11.17;76.55;101748.16;4998073;28;20245;-78
2023/05/19 06:42:55;;;;;;;5.20;4.23;;;;;;;11.19;76.87;101745.56;4999777;28;20231;-77
2023/05/19 06:45:21;;;;;;;8.73;4.57;;;;;;;11.28;76.50;101745.56;5000205;28;20203;-77
2023/05/19 06:47:47;;;;;;;4.90;4.10;;;;;;;11.35;76.30;101755.13;5000130;28;20207;-78
2023/05/19 06:50:14;;;;;;;4.30;3.90;;;;;;;11.39;75.44;101771.69;4999578;28;20222;-77
2023/05/19 06:52:43;;;;;;;5.77;3.70;;;;;;;11.46;74.73;101781.28;4999681;28;20295;-77
2023/05/19 06:55:09;;;;;;;5.50;3.53;;;;;;;11.51;74.64;101805.66;4998109;28;20220;-77
2023/05/19 06:57:36;;;;;;;4.73;3.63;;;;;;;11.56;74.30;101813.53;4998055;28;20629;-77
2023/05/19 07:00:02;;;;;;;6.57;3.80;;;;;;;11.58;76.23;101791.72;4997581;28;20224;-77
2023/05/19 07:02:29;;;;;;;5.30;3.80;;;;;;;11.66;75.38;101787.34;4998448;28;20238;-77
2023/05/19 07:04:56;;;;;;;6.90;4.10;;;;;;;11.71;74.77;101789.94;4998266;28;20208;-76
2023/05/19 07:07:22;;;;;;;4.17;3.33;;;;;;;11.79;75.04;101803.00;4997735;28;20239;-77
2023/05/19 07:09:50;;;;;;;5.57;3.80;;;;;;;11.83;75.39;101800.41;4997345;28;20222;-77
2023/05/19 07:12:16;;;;;;;7.10;4.43;;;;;;;11.87;75.08;101801.25;4998053;28;20223;-77
2023/05/19 07:14:43;;;;;;;5.17;4.30;;;;;;;11.91;74.79;101814.38;4997419;28;20926;-77
2023/05/19 07:17:09;;;;;;;4.30;3.60;;;;;;;11.94;74.46;101805.63;4997453;28;20207;-77
2023/05/19 07:19:35;;;;;;;6.83;4.13;;;;;;;12.03;74.51;101812.56;4998150;28;20207;-77
2023/05/19 07:22:02;;;;;;;7.77;4.80;;;;;;;12.08;74.21;101813.44;4999001;28;20212;-77
2023/05/19 07:24:29;;;;;;;9.07;4.83;;;;;;;12.17;73.53;101831.75;4997704;28;20211;-77
2023/05/19 07:26:57;;;;;;;6.10;3.77;;;;;;;12.19;72.31;101845.72;4997676;28;20207;-77
2023/05/19 07:29:23;;;;;;;10.17;3.97;;;;;;;12.25;72.97;101858.78;4997868;28;20668;-77
2023/05/19 07:31:52;;;;;;;9.53;4.97;;;;;;;12.27;72.16;101872.72;4993686;28;20208;-77
2023/05/19 07:34:19;;;;;;;5.80;4.07;;;;;;;12.30;72.66;101880.56;4997002;28;20237;-77
2023/05/19 07:36:45;;;;;;;7.57;3.90;;;;;;;12.37;72.66;101872.69;4994017;28;20679;-77
2023/05/19 07:39:12;;;;;;;5.93;3.60;;;;;;;12.44;71.82;101877.91;4993581;28;20215;-77
2023/05/19 07:41:38;;;;;;;5.23;3.70;;;;;;;12.54;71.16;101893.59;4993987;28;20262;-77
2023/05/19 07:44:06;;;;;;;8.47;3.80;;;;;;;12.60;69.81;101920.63;4996735;28;20797;-76
2023/05/19 07:46:32;;;;;;;4.57;4.17;;;;;;;12.63;70.89;101933.72;4996164;28;20199;-77
2023/05/19 07:48:59;;;;;;;6.17;3.83;;;;;;;12.67;70.10;101938.06;4996180;28;20212;-77
2023/05/19 07:51:25;;;;;;;5.23;3.53;;;;;;;12.75;70.82;101939.81;4995249;28;20212;-77
2023/05/19 07:53:54;;;;;;;5.40;3.40;;;;;;;12.78;70.59;101943.25;4994314;28;20266;-77
2023/05/19 07:56:21;;;;;;;5.60;3.70;;;;;;;12.82;70.45;101944.13;4995000;28;20236;-78
2023/05/19 07:58:47;;;;;;;4.00;3.57;;;;;;;12.84;70.91;101939.75;4997181;28;20204;-78
2023/05/19 08:01:15;;;;;;;5.20;4.00;;;;;;;12.94;70.43;101932.72;4995846;28;20696;-77
2023/05/19 08:03:41;;;;;;;4.80;3.40;;;;;;;13.00;70.77;101938.81;4997356;28;20251;-77
2023/05/19 08:06:08;;;;;;;8.13;4.33;;;;;;;13.07;70.30;101942.28;4997797;28;20314;-77
2023/05/19 08:08:34;;;;;;;5.80;3.83;;;;;;;13.10;69.50;101952.72;4997404;28;20203;-77
2023/05/19 08:11:02;;;;;;;6.50;4.57;;;;;;;13.19;68.89;101957.06;4999409;28;20670;-78
2023/05/19 08:13:28;;;;;;;5.70;4.20;;;;;;;13.20;67.94;101980.66;5003338;28;20717;-78
2023/05/19 08:15:58;;;;;;;4.77;3.80;;;;;;;13.22;68.40;101999.00;5003174;28;20212;-78
2023/05/19 08:18:26;;;;;;;3.87;3.57;;;;;;;13.27;67.88;102013.84;5000168;28;20211;-79
2023/05/19 08:20:52;;;;;;;5.37;3.67;;;;;;;13.32;67.04;102021.72;5001978;28;20212;-78
2023/05/19 08:23:18;;;;;;;5.13;3.57;;;;;;;13.34;67.46;102037.44;5001670;28;20250;-79
2023/05/19 08:25:45;;;;;;;5.07;3.70;;;;;;;13.42;67.19;102031.28;5004561;28;20218;-78
2023/05/19 08:28:11;;;;;;;7.87;3.43;;;;;;;13.47;67.09;102042.63;4997386;28;20275;-78
2023/05/19 08:30:37;;;;;;;5.70;3.63;;;;;;;13.53;66.56;102041.72;4998399;28;20684;-77
2023/05/19 08:33:04;;;;;;;4.20;3.40;;;;;;;13.56;66.58;102048.69;5001847;28;20228;-77
2023/05/19 08:35:31;;;;;;;5.47;3.27;;;;;;;13.60;66.06;102069.69;4998078;28;20718;-77
2023/05/19 08:37:58;;;;;;;6.37;3.70;;;;;;;13.68;66.64;102051.28;5000407;28;20209;-78
2023/05/19 08:40:26;;;;;;;6.07;3.80;;;;;;;13.70;68.61;102042.50;4999631;28;20256;-77
2023/05/19 08:42:52;;;;;;;9.03;3.23;;;;;;;13.73;66.82;102025.84;4996989;28;20790;-77
2023/05/19 08:45:28;;;;;;;6.33;3.70;;;;;;;13.81;65.59;102039.78;5000426;28;20213;-78
2023/05/19 08:52:02;;;;;;;5.73;3.77;;;;;;;14.00;65.32;102077.31;4848006;29;20217;-78
2023/05/19 08:54:42;;;;;;;5.13;4.00;;;;;;;14.04;67.46;102057.16;4973686;28;20256;-79
2023/05/19 08:57:09;;;;;;;6.97;3.53;;;;;;;14.16;64.53;102049.19;5000363;28;20202;-78
2023/05/19 08:59:36;;;;;;;4.23;2.80;;;;;;;14.22;63.63;102074.53;5000717;28;20584;-77
2023/05/19 09:02:03;;;;;;;6.43;3.77;;;;;;;14.32;64.28;102086.69;4999930;28;20264;-78
2023/05/19 09:04:30;;;;;;;5.97;3.17;;;;;;;14.38;62.90;102097.16;5001033;28;20206;-78
2023/05/19 09:07:01;;;;;;;4.07;2.63;;;;;;;14.45;62.86;102119.88;5000112;28;20205;-78
2023/05/19 09:09:27;;;;;;;4.60;3.93;;;;;;;14.53;63.29;102121.56;5001254;28;20210;-78
2023/05/19 09:11:57;;;;;;;5.53;3.57;;;;;;;14.60;61.76;102142.53;5000088;28;20213;-79
2023/05/19 09:14:24;;;;;;;5.63;3.67;;;;;;;14.64;61.87;102154.78;4998059;28;20225;-80
2023/05/19 09:16:51;;;;;;;4.90;3.63;;;;;;;14.68;61.88;102171.41;4305246;28;10000682;-79
2023/05/19 09:19:19;;;;;;;6.50;3.87;;;;;;;14.73;61.50;102177.50;4997469;28;20240;-78
2023/05/19 09:21:45;;;;;;;5.40;3.50;;;;;;;14.81;60.97;102159.03;4997159;28;20225;-78
2023/05/19 09:24:13;;;;;;;4.37;3.40;;;;;;;14.89;60.50;102192.25;4997183;28;20230;-78
2023/05/19 09:26:41;;;;;;;4.47;3.53;;;;;;;14.96;59.77;102198.31;4997792;28;20218;-78
2023/05/19 09:29:11;;;;;;;4.93;2.90;;;;;;;15.04;59.04;102219.28;4997381;28;20246;-78
2023/05/19 09:31:38;;;;;;;7.33;3.00;;;;;;;15.10;59.15;102219.22;4997442;28;20254;-78
2023/05/19 09:34:04;;;;;;;4.70;3.50;;;;;;;15.18;58.11;102240.22;4997059;28;20249;-79
2023/05/19 09:36:31;;;;;;;5.13;3.20;;;;;;;15.24;58.20;102270.00;4997469;28;20215;-79
2023/05/19 09:38:58;;;;;;;5.37;3.33;;;;;;;15.34;58.49;102267.25;4996950;28;20210;-79
2023/05/19 09:41:26;;;;;;;5.87;3.07;;;;;;;15.39;58.86;102261.06;4997517;28;20929;-79
2023/05/19 09:43:54;;;;;;;4.57;3.00;;;;;;;15.48;57.01;102268.88;4997323;28;20755;-78
2023/05/19 09:46:27;;;;;;;5.53;3.10;;;;;;;15.57;56.35;102301.25;4997228;28;20217;-78
2023/05/19 09:48:57;;;;;;;3.73;3.37;;;;;;;15.59;56.39;102313.50;4997991;28;20210;-78
2023/05/19 09:51:23;;;;;;;3.37;3.07;;;;;;;15.65;56.55;102321.34;4997473;28;20219;-79
2023/05/19 09:53:50;;;;;;;4.97;2.70;;;;;;;15.72;56.72;102322.16;4997751;28;20264;-79
2023/05/19 09:56:16;;;;;;;4.50;2.80;;;;;;;15.78;55.35;102326.53;4997122;28;20218;-79
2023/05/19 09:58:45;;;;;;;3.30;2.33;;;;;;;15.87;56.45;102342.22;4997198;28;20249;-79
2023/05/19 10:01:12;;;;;;;3.27;2.47;;;;;;;15.95;56.52;102329.84;4996815;28;20257;-79
2023/05/19 10:03:39;;;;;;;2.70;2.47;;;;;;;16.00;55.28;102330.69;4996980;28;20317;-79
2023/05/19 10:06:07;;;;;;;5.60;2.73;;;;;;;16.13;55.09;102335.81;4996012;28;20215;-79
2023/05/19 10:08:34;;;;;;;3.77;2.33;;;;;;;16.20;55.60;102340.13;4996408;28;20210;-79
2023/05/19 10:11:01;;;;;;;4.50;2.73;;;;;;;16.25;55.24;102336.53;4996165;28;20621;-79
2023/05/19 10:13:29;;;;;;;5.10;2.40;;;;;;;16.36;54.56;102325.84;4996422;28;20239;-79
2023/05/19 10:15:58;;;;;;;3.37;2.73;;;;;;;16.47;54.06;102320.44;4996910;28;20250;-79
2023/05/19 10:18:25;;;;;;;4.20;2.70;;;;;;;16.57;53.71;102352.81;4997107;28;20238;-79
2023/05/19 10:20:52;;;;;;;4.00;2.47;;;;;;;16.67;55.01;102379.06;4993656;28;20217;-78
2023/05/19 10:23:18;;;;;;;3.20;2.10;;;;;;;16.80;52.91;102326.13;4990263;28;20278;-79
2023/05/19 10:25:46;;;;;;;2.27;1.97;;;;;;;16.87;51.86;102368.28;4989443;28;20234;-80
2023/05/19 10:28:15;;;;;;;4.20;2.23;;;;;;;16.92;51.02;102412.19;4989687;28;20269;-79
2023/05/19 10:30:46;;;;;;;2.23;1.73;;;;;;;16.98;51.22;102438.47;4990104;28;20749;-78
2023/05/19 10:33:15;;;;;;;3.37;1.90;;;;;;;17.05;49.42;102443.66;4989963;28;20262;-78
2023/05/19 10:36:07;;;;;;;2.03;1.60;;;;;;;17.15;50.73;102486.63;4989838;28;20234;-78
2023/05/19 10:38:41;;;;;;;2.37;1.70;;;;;;;17.28;51.18;102479.38;4990256;28;20215;-78
2023/05/19 10:41:12;;;;;;;2.47;1.83;;;;;;;17.37;48.92;102478.41;4990170;28;20264;-78
2023/05/19 10:43:52;;;;;;;2.53;1.87;;;;;;;17.31;48.97;102500.47;4989671;28;20293;-78
2023/05/19 10:46:23;;;;;;;3.10;1.67;;;;;;;17.27;48.88;102528.66;4988556;28;20269;-78
2023/05/19 10:48:51;;;;;;;2.63;1.40;;;;;;;17.30;50.34;102538.31;4989839;28;20293;-78
2023/05/19 10:51:18;;;;;;;3.67;1.70;;;;;;;17.46;48.96;102513.47;4988374;28;20207;-79
2023/05/19 10:53:45;;;;;;;1.70;1.60;;;;;;;17.59;48.79;102522.06;4989988;28;20223;-78
2023/05/19 10:56:12;;;;;;;4.97;2.03;;;;;;;17.77;48.21;102517.41;4989745;28;20222;-79
2023/05/19 10:58:51;;;;;;;3.00;1.50;;;;;;;17.92;49.47;102540.09;4990272;28;20748;-79
2023/05/19 11:01:19;;;;;;;5.90;2.07;;;;;;;17.97;47.75;102525.03;4987388;28;20203;-78
2023/05/19 11:03:47;;;;;;;3.43;1.67;;;;;;;18.06;47.71;102543.41;4990424;28;20285;-78
2023/05/19 11:06:19;;;;;;;3.60;1.50;;;;;;;18.09;47.34;102550.41;4989769;28;20211;-78
2023/05/19 11:08:47;;;;;;;2.00;1.60;;;;;;;18.09;47.77;102542.47;4990165;28;20218;-78
2023/05/19 11:11:15;;;;;;;1.40;1.30;;;;;;;17.95;46.88;102554.13;4989934;28;20214;-78
2023/05/19 11:13:43;;;;;;;2.37;1.33;;;;;;;17.88;45.68;102584.19;4989457;28;20264;-79
2023/05/19 11:16:10;;;;;;;2.53;1.37;;;;;;;17.85;48.00;102610.66;4988885;28;20254;-79
2023/05/19 11:18:37;;;;;;;1.97;1.33;;;;;;;17.98;48.51;102558.50;4990152;28;20356;-79
2023/05/19 11:21:03;;;;;;;1.77;1.20;;;;;;;18.16;46.26;102529.13;4989969;28;20297;-81
2023/05/19 11:23:33;;;;;;;2.80;1.40;;;;;;;18.34;46.43;102558.78;4990676;28;20231;-79
2023/05/19 11:26:02;;;;;;;4.07;1.70;;;;;;;18.46;45.02;102574.44;4990166;28;20636;-79
2023/05/19 11:28:29;;;;;;;2.57;1.20;;;;;;;18.77;45.36;102589.72;4990783;28;20235;-79
2023/05/19 11:30:57;;;;;;;1.63;1.30;;;;;;;19.41;44.66;102599.06;4990423;28;20215;-79
2023/05/19 11:33:25;;;;;;;1.60;1.50;;;;;;;20.36;41.76;102621.69;4990449;28;20235;-79